sensor_id;sensor_type;location;lat;lon;timestamp;pressure;altitude;pressure_sealevel;temperature;humidity
46782;BME280;32541;46.298;11.506;2023-02-18T08:02:02;90273.00;;;9.42;56.01
46782;BME280;32541;46.298;11.506;2023-02-18T08:04:29;90266.00;;;9.49;55.98
46782;BME280;32541;46.298;11.506;2023-02-18T08:06:54;90272.97;;;9.50;55.88
46782;BME280;32541;46.298;11.506;2023-02-18T08:09:20;90269.28;;;9.55;55.51
46782;BME280;32541;46.298;11.506;2023-02-18T08:11:45;90260.63;;;9.66;54.38
46782;BME280;32541;46.298;11.506;2023-02-18T08:14:10;90252.22;;;9.64;54.23
46782;BME280;32541;46.298;11.506;2023-02-18T08:16:36;90246.34;;;9.68;54.59
46782;BME280;32541;46.298;11.506;2023-02-18T08:19:02;90240.25;;;9.77;54.44
46782;BME280;32541;46.298;11.506;2023-02-18T08:21:30;90247.34;;;10.12;53.17
46782;BME280;32541;46.298;11.506;2023-02-18T08:23:57;90241.06;;;10.27;53.44
46782;BME280;32541;46.298;11.506;2023-02-18T08:26:23;90240.16;;;10.24;52.56
46782;BME280;32541;46.298;11.506;2023-02-18T08:28:48;90247.97;;;10.28;51.42
46782;BME280;32541;46.298;11.506;2023-02-18T08:31:20;90234.44;;;10.30;51.54
46782;BME280;32541;46.298;11.506;2023-02-18T08:33:46;90225.50;;;10.64;50.47
46782;BME280;32541;46.298;11.506;2023-02-18T08:36:11;90231.44;;;10.35;50.27
46782;BME280;32541;46.298;11.506;2023-02-18T08:38:37;90231.97;;;9.84;51.54
46782;BME280;32541;46.298;11.506;2023-02-18T08:41:04;90224.88;;;8.86;55.07
46782;BME280;32541;46.298;11.506;2023-02-18T08:43:30;90229.16;;;7.97;57.39
46782;BME280;32541;46.298;11.506;2023-02-18T08:45:56;90225.31;;;8.15;57.73
46782;BME280;32541;46.298;11.506;2023-02-18T08:48:22;90221.69;;;7.90;57.97
46782;BME280;32541;46.298;11.506;2023-02-18T08:50:48;90228.97;;;8.10;59.82
46782;BME280;32541;46.298;11.506;2023-02-18T08:53:13;90232.25;;;8.69;58.30
46782;BME280;32541;46.298;11.506;2023-02-18T08:55:39;90236.28;;;8.37;57.13
46782;BME280;32541;46.298;11.506;2023-02-18T08:58:05;90241.41;;;7.96;58.03
46782;BME280;32541;46.298;11.506;2023-02-18T09:00:31;90244.09;;;7.65;58.60
46782;BME280;32541;46.298;11.506;2023-02-18T09:02:56;90231.09;;;7.51;58.87
46782;BME280;32541;46.298;11.506;2023-02-18T09:05:21;90236.09;;;7.98;58.19
46782;BME280;32541;46.298;11.506;2023-02-18T09:07:47;90229.91;;;8.43;57.43
46782;BME280;32541;46.298;11.506;2023-02-18T09:10:12;90231.34;;;8.66;56.73
46782;BME280;32541;46.298;11.506;2023-02-18T09:12:38;90225.19;;;9.53;55.55
46782;BME280;32541;46.298;11.506;2023-02-18T09:15:03;90219.25;;;9.64;54.62
46782;BME280;32541;46.298;11.506;2023-02-18T09:17:29;90228.94;;;10.30;53.04
46782;BME280;32541;46.298;11.506;2023-02-18T09:19:55;90225.94;;;9.78;53.83
46782;BME280;32541;46.298;11.506;2023-02-18T09:22:20;90233.16;;;8.71;56.06
46782;BME280;32541;46.298;11.506;2023-02-18T09:24:46;90238.47;;;8.54;57.51
46782;BME280;32541;46.298;11.506;2023-02-18T09:27:11;90234.47;;;8.10;57.92
46782;BME280;32541;46.298;11.506;2023-02-18T09:29:39;90241.72;;;7.84;59.95
46782;BME280;32541;46.298;11.506;2023-02-18T09:32:05;90234.44;;;7.72;60.73
46782;BME280;32541;46.298;11.506;2023-02-18T09:34:31;90236.19;;;7.47;61.18
46782;BME280;32541;46.298;11.506;2023-02-18T09:36:56;90247.69;;;7.60;60.88
46782;BME280;32541;46.298;11.506;2023-02-18T09:39:22;90237.97;;;7.37;61.21
46782;BME280;32541;46.298;11.506;2023-02-18T09:42:00;90237.88;;;7.72;59.91
46782;BME280;32541;46.298;11.506;2023-02-18T09:44:39;90242.41;;;7.55;60.95
46782;BME280;32541;46.298;11.506;2023-02-18T09:49:40;90227.09;;;7.67;61.06
46782;BME280;32541;46.298;11.506;2023-02-18T09:52:15;90230.78;;;8.00;59.86
46782;BME280;32541;46.298;11.506;2023-02-18T09:54:41;90226.59;;;8.21;57.93
46782;BME280;32541;46.298;11.506;2023-02-18T09:57:20;90227.16;;;8.43;58.18
46782;BME280;32541;46.298;11.506;2023-02-18T09:59:58;90230.28;;;8.39;59.16
46782;BME280;32541;46.298;11.506;2023-02-18T10:02:26;90229.31;;;8.59;58.68
46782;BME280;32541;46.298;11.506;2023-02-18T10:04:52;90229.97;;;9.05;57.70
46782;BME280;32541;46.298;11.506;2023-02-18T10:07:24;90220.94;;;8.57;57.91
46782;BME280;32541;46.298;11.506;2023-02-18T10:09:51;90213.09;;;8.38;59.35
46782;BME280;32541;46.298;11.506;2023-02-18T10:12:22;90217.59;;;8.74;59.56
46782;BME280;32541;46.298;11.506;2023-02-18T10:14:53;90217.78;;;9.31;57.50
46782;BME280;32541;46.298;11.506;2023-02-18T10:17:22;90216.66;;;9.34;57.00
46782;BME280;32541;46.298;11.506;2023-02-18T10:19:50;90211.88;;;9.42;56.62
46782;BME280;32541;46.298;11.506;2023-02-18T10:22:17;90211.84;;;9.82;56.03
46782;BME280;32541;46.298;11.506;2023-02-18T10:24:59;90212.63;;;9.99;54.71
46782;BME280;32541;46.298;11.506;2023-02-18T10:27:28;90202.72;;;10.88;53.16
46782;BME280;32541;46.298;11.506;2023-02-18T10:30:09;90209.97;;;10.17;52.77
46782;BME280;32541;46.298;11.506;2023-02-18T10:32:45;90199.63;;;10.00;53.22
46782;BME280;32541;46.298;11.506;2023-02-18T10:35:18;90194.69;;;10.48;52.47
46782;BME280;32541;46.298;11.506;2023-02-18T10:43:23;90190.44;;;10.05;52.63
46782;BME280;32541;46.298;11.506;2023-02-18T10:46:08;90187.28;;;10.09;52.28
46782;BME280;32541;46.298;11.506;2023-02-18T10:51:19;90185.06;;;10.15;52.49
46782;BME280;32541;46.298;11.506;2023-02-18T10:53:48;90182.41;;;10.66;51.81
46782;BME280;32541;46.298;11.506;2023-02-18T10:56:31;90180.81;;;10.97;50.61
46782;BME280;32541;46.298;11.506;2023-02-18T10:59:04;90176.44;;;10.77;51.11
46782;BME280;32541;46.298;11.506;2023-02-18T11:01:31;90174.25;;;11.10;50.58
46782;BME280;32541;46.298;11.506;2023-02-18T11:04:36;90173.94;;;10.72;52.49
46782;BME280;32541;46.298;11.506;2023-02-18T11:07:12;90161.63;;;10.55;51.50
46782;BME280;32541;46.298;11.506;2023-02-18T11:12:17;90158.47;;;10.76;50.86
46782;BME280;32541;46.298;11.506;2023-02-18T11:14:47;90152.97;;;10.93;49.31
46782;BME280;32541;46.298;11.506;2023-02-18T11:17:20;90139.47;;;11.32;50.64
46782;BME280;32541;46.298;11.506;2023-02-18T11:19:57;90156.81;;;11.25;49.34
46782;BME280;32541;46.298;11.506;2023-02-18T11:22:31;90142.63;;;11.72;48.47
46782;BME280;32541;46.298;11.506;2023-02-18T11:25:03;90132.63;;;11.50;48.00
46782;BME280;32541;46.298;11.506;2023-02-18T11:27:44;90135.91;;;10.95;50.40
46782;BME280;32541;46.298;11.506;2023-02-18T11:30:20;90124.78;;;11.02;50.21
46782;BME280;32541;46.298;11.506;2023-02-18T11:32:53;90119.06;;;11.35;49.36
46782;BME280;32541;46.298;11.506;2023-02-18T11:35:22;90113.94;;;11.75;48.47
46782;BME280;32541;46.298;11.506;2023-02-18T11:37:49;90113.66;;;11.81;48.00
46782;BME280;32541;46.298;11.506;2023-02-18T11:40:25;90105.53;;;12.19;47.12
46782;BME280;32541;46.298;11.506;2023-02-18T11:43:02;90102.88;;;12.02;47.96
46782;BME280;32541;46.298;11.506;2023-02-18T11:45:31;90104.97;;;11.84;47.94
46782;BME280;32541;46.298;11.506;2023-02-18T11:48:23;90101.91;;;12.26;46.94
46782;BME280;32541;46.298;11.506;2023-02-18T11:50:52;90103.63;;;11.49;47.26
46782;BME280;32541;46.298;11.506;2023-02-18T11:53:28;90099.69;;;11.42;47.71
46782;BME280;32541;46.298;11.506;2023-02-18T11:55:58;90093.50;;;11.51;47.32
46782;BME280;32541;46.298;11.506;2023-02-18T11:58:24;90087.63;;;11.38;47.67
46782;BME280;32541;46.298;11.506;2023-02-18T12:00:54;90088.88;;;11.54;48.27
46782;BME280;32541;46.298;11.506;2023-02-18T12:06:04;90080.16;;;11.48;47.27
46782;BME280;32541;46.298;11.506;2023-02-18T12:08:47;90078.25;;;11.77;46.72
46782;BME280;32541;46.298;11.506;2023-02-18T12:11:21;90076.47;;;11.36;47.24
46782;BME280;32541;46.298;11.506;2023-02-18T12:13:52;90069.53;;;11.44;47.66
46782;BME280;32541;46.298;11.506;2023-02-18T12:19:33;90076.84;;;11.59;47.13
46782;BME280;32541;46.298;11.506;2023-02-18T12:22:15;90081.66;;;11.32;47.94
46782;BME280;32541;46.298;11.506;2023-02-18T12:27:26;90071.94;;;11.67;47.37
46782;BME280;32541;46.298;11.506;2023-02-18T12:30:38;90058.34;;;11.33;47.15
46782;BME280;32541;46.298;11.506;2023-02-18T12:32:50;90064.88;;;11.37;48.48
46782;BME280;32541;46.298;11.506;2023-02-18T12:58:08;90035.69;;;11.97;47.45
46782;BME280;32541;46.298;11.506;2023-02-18T13:03:35;90024.19;;;11.82;48.38
46782;BME280;32541;46.298;11.506;2023-02-18T13:11:51;90008.41;;;11.55;49.03
46782;BME280;32541;46.298;11.506;2023-02-18T13:14:28;90012.22;;;11.24;49.30
46782;BME280;32541;46.298;11.506;2023-02-18T13:16:57;90008.78;;;11.33;49.97
46782;BME280;32541;46.298;11.506;2023-02-18T13:19:28;90000.47;;;11.59;48.89
46782;BME280;32541;46.298;11.506;2023-02-18T13:21:59;89988.13;;;11.51;49.56
46782;BME280;32541;46.298;11.506;2023-02-18T13:24:33;89993.88;;;11.36;49.01
46782;BME280;32541;46.298;11.506;2023-02-18T13:27:12;89984.81;;;11.62;50.09
46782;BME280;32541;46.298;11.506;2023-02-18T13:41:11;89974.63;;;12.01;48.52
46782;BME280;32541;46.298;11.506;2023-02-18T13:43:36;89984.06;;;12.07;48.87
46782;BME280;32541;46.298;11.506;2023-02-18T13:46:16;89977.44;;;11.19;50.00
46782;BME280;32541;46.298;11.506;2023-02-18T13:51:32;89982.19;;;11.54;49.26
46782;BME280;32541;46.298;11.506;2023-02-18T13:56:39;89979.94;;;11.34;50.41
46782;BME280;32541;46.298;11.506;2023-02-18T14:01:51;89975.66;;;11.13;50.63
46782;BME280;32541;46.298;11.506;2023-02-18T14:07:36;89981.56;;;10.74;52.65
46782;BME280;32541;46.298;11.506;2023-02-18T14:25:54;89992.03;;;10.41;53.64
46782;BME280;32541;46.298;11.506;2023-02-18T14:31:01;89988.75;;;10.25;53.26
46782;BME280;32541;46.298;11.506;2023-02-18T14:33:30;90002.09;;;10.29;53.56
46782;BME280;32541;46.298;11.506;2023-02-18T14:44:22;89989.50;;;9.25;57.04
46782;BME280;32541;46.298;11.506;2023-02-18T14:47:09;89995.53;;;9.48;56.51
46782;BME280;32541;46.298;11.506;2023-02-18T14:49:44;89989.53;;;9.42;56.46
46782;BME280;32541;46.298;11.506;2023-02-18T14:52:22;89995.88;;;9.52;56.80
46782;BME280;32541;46.298;11.506;2023-02-18T14:54:53;89988.13;;;9.58;56.86
46782;BME280;32541;46.298;11.506;2023-02-18T14:57:31;89993.03;;;9.60;56.76
46782;BME280;32541;46.298;11.506;2023-02-18T14:59:58;89989.88;;;9.46;56.41
46782;BME280;32541;46.298;11.506;2023-02-18T15:02:26;89985.38;;;9.58;56.76
46782;BME280;32541;46.298;11.506;2023-02-18T15:04:52;89983.53;;;9.78;56.26
46782;BME280;32541;46.298;11.506;2023-02-18T15:07:20;89998.34;;;9.82;57.22
46782;BME280;32541;46.298;11.506;2023-02-18T15:09:52;89991.38;;;9.81;55.83
46782;BME280;32541;46.298;11.506;2023-02-18T15:12:20;89994.91;;;9.74;56.15
46782;BME280;32541;46.298;11.506;2023-02-18T15:14:47;89988.56;;;9.89;55.93
46782;BME280;32541;46.298;11.506;2023-02-18T15:17:18;89988.97;;;9.85;56.17
46782;BME280;32541;46.298;11.506;2023-02-18T15:19:50;89985.91;;;9.81;55.24
46782;BME280;32541;46.298;11.506;2023-02-18T15:22:21;89989.63;;;9.93;55.52
46782;BME280;32541;46.298;11.506;2023-02-18T15:24:48;89990.25;;;10.01;54.98
46782;BME280;32541;46.298;11.506;2023-02-18T15:27:18;89988.72;;;9.91;54.75
46782;BME280;32541;46.298;11.506;2023-02-18T15:29:50;89984.91;;;9.86;54.93
46782;BME280;32541;46.298;11.506;2023-02-18T15:32:20;89985.59;;;9.94;54.88
46782;BME280;32541;46.298;11.506;2023-02-18T15:34:49;89989.31;;;10.07;54.35
46782;BME280;32541;46.298;11.506;2023-02-18T15:37:15;89986.78;;;10.01;54.39
46782;BME280;32541;46.298;11.506;2023-02-18T15:39:42;89983.41;;;9.34;56.33
46782;BME280;32541;46.298;11.506;2023-02-18T15:42:32;89988.16;;;9.33;56.31
46782;BME280;32541;46.298;11.506;2023-02-18T15:45:09;89981.16;;;9.40;56.44
46782;BME280;32541;46.298;11.506;2023-02-18T15:47:57;89985.03;;;9.12;57.17
46782;BME280;32541;46.298;11.506;2023-02-18T15:50:29;89985.28;;;9.24;57.34
46782;BME280;32541;46.298;11.506;2023-02-18T15:52:58;89985.88;;;9.22;57.40
46782;BME280;32541;46.298;11.506;2023-02-18T15:55:37;89976.13;;;9.29;57.05
46782;BME280;32541;46.298;11.506;2023-02-18T15:58:15;89986.91;;;9.27;57.37
46782;BME280;32541;46.298;11.506;2023-02-18T16:00:54;89969.75;;;9.26;57.41
46782;BME280;32541;46.298;11.506;2023-02-18T16:03:23;89979.00;;;9.14;57.56
46782;BME280;32541;46.298;11.506;2023-02-18T16:05:49;89977.75;;;9.07;58.39
46782;BME280;32541;46.298;11.506;2023-02-18T16:08:23;89982.72;;;9.01;59.70
46782;BME280;32541;46.298;11.506;2023-02-18T16:10:59;89971.38;;;9.05;59.84
46782;BME280;32541;46.298;11.506;2023-02-18T16:13:26;89979.44;;;9.03;59.45
46782;BME280;32541;46.298;11.506;2023-02-18T16:15:53;89975.84;;;8.92;59.36
46782;BME280;32541;46.298;11.506;2023-02-18T16:18:35;89976.28;;;8.81;59.83
46782;BME280;32541;46.298;11.506;2023-02-18T16:23:55;89995.78;;;8.61;59.65
46782;BME280;32541;46.298;11.506;2023-02-18T16:29:24;89986.31;;;8.54;59.87
46782;BME280;32541;46.298;11.506;2023-02-18T16:31:50;89990.78;;;8.34;60.92
46782;BME280;32541;46.298;11.506;2023-02-18T16:34:15;89996.47;;;8.29;61.07
46782;BME280;32541;46.298;11.506;2023-02-18T16:36:41;89985.44;;;7.97;62.01
46782;BME280;32541;46.298;11.506;2023-02-18T16:39:32;90006.59;;;7.96;62.15
46782;BME280;32541;46.298;11.506;2023-02-18T16:41:58;89999.16;;;7.89;61.91
46782;BME280;32541;46.298;11.506;2023-02-18T16:44:24;90002.28;;;7.78;62.73
46782;BME280;32541;46.298;11.506;2023-02-18T16:46:49;90012.72;;;7.72;62.16
46782;BME280;32541;46.298;11.506;2023-02-18T16:49:14;90007.59;;;7.68;62.60
46782;BME280;32541;46.298;11.506;2023-02-18T16:51:40;90006.72;;;7.43;64.20
46782;BME280;32541;46.298;11.506;2023-02-18T16:54:09;90018.59;;;7.38;63.89
46782;BME280;32541;46.298;11.506;2023-02-18T16:56:35;90012.03;;;7.26;63.88
46782;BME280;32541;46.298;11.506;2023-02-18T16:59:00;90018.22;;;7.11;65.02
46782;BME280;32541;46.298;11.506;2023-02-18T17:01:29;90012.19;;;7.13;65.02
46782;BME280;32541;46.298;11.506;2023-02-18T17:04:00;90017.13;;;7.07;65.28
46782;BME280;32541;46.298;11.506;2023-02-18T17:06:26;90011.66;;;7.14;64.88
46782;BME280;32541;46.298;11.506;2023-02-18T17:08:51;90014.03;;;7.03;65.21
46782;BME280;32541;46.298;11.506;2023-02-18T17:11:25;90022.78;;;6.94;65.65
46782;BME280;32541;46.298;11.506;2023-02-18T17:13:53;90022.41;;;6.82;65.18
46782;BME280;32541;46.298;11.506;2023-02-18T17:16:20;90022.75;;;6.71;65.90
46782;BME280;32541;46.298;11.506;2023-02-18T17:18:45;90020.69;;;6.56;66.90
46782;BME280;32541;46.298;11.506;2023-02-18T17:21:17;90029.97;;;6.38;67.73
46782;BME280;32541;46.298;11.506;2023-02-18T17:23:43;90029.97;;;6.38;67.43
46782;BME280;32541;46.298;11.506;2023-02-18T17:26:18;90029.97;;;6.53;67.26
46782;BME280;32541;46.298;11.506;2023-02-18T17:28:45;90035.03;;;6.34;67.41
46782;BME280;32541;46.298;11.506;2023-02-18T17:31:19;90037.22;;;6.36;67.23
46782;BME280;32541;46.298;11.506;2023-02-18T17:33:47;90029.53;;;6.27;67.58
46782;BME280;32541;46.298;11.506;2023-02-18T17:36:12;90044.81;;;6.14;67.57
46782;BME280;32541;46.298;11.506;2023-02-18T17:38:38;90034.97;;;6.19;70.69
46782;BME280;32541;46.298;11.506;2023-02-18T17:41:05;90044.22;;;6.08;68.81
46782;BME280;32541;46.298;11.506;2023-02-18T17:43:30;90047.16;;;6.18;68.90
46782;BME280;32541;46.298;11.506;2023-02-18T17:45:56;90036.38;;;6.05;68.99
46782;BME280;32541;46.298;11.506;2023-02-18T17:48:23;90034.53;;;6.00;68.53
46782;BME280;32541;46.298;11.506;2023-02-18T17:50:49;90036.53;;;5.99;68.72
46782;BME280;32541;46.298;11.506;2023-02-18T17:53:15;90038.97;;;5.82;68.83
46782;BME280;32541;46.298;11.506;2023-02-18T17:55:42;90043.59;;;5.87;68.64
46782;BME280;32541;46.298;11.506;2023-02-18T17:58:09;90043.16;;;5.83;68.74
46782;BME280;32541;46.298;11.506;2023-02-18T18:00:38;90046.63;;;5.84;68.95
46782;BME280;32541;46.298;11.506;2023-02-18T18:03:04;90043.59;;;5.95;68.28
46782;BME280;32541;46.298;11.506;2023-02-18T18:05:35;90044.31;;;5.88;68.18
46782;BME280;32541;46.298;11.506;2023-02-18T18:08:02;90041.63;;;5.67;69.93
46782;BME280;32541;46.298;11.506;2023-02-18T18:10:31;90040.31;;;5.60;70.57
46782;BME280;32541;46.298;11.506;2023-02-18T18:12:59;90035.13;;;5.49;70.14
46782;BME280;32541;46.298;11.506;2023-02-18T18:15:58;90050.88;;;5.36;71.02
46782;BME280;32541;46.298;11.506;2023-02-18T18:18:17;90041.00;;;5.25;71.43
46782;BME280;32541;46.298;11.506;2023-02-18T18:20:49;90046.97;;;5.03;71.27
46782;BME280;32541;46.298;11.506;2023-02-18T18:23:16;90053.56;;;5.08;71.69
46782;BME280;32541;46.298;11.506;2023-02-18T18:25:48;90049.25;;;5.12;71.72
46782;BME280;32541;46.298;11.506;2023-02-18T18:28:14;90051.91;;;5.04;71.68
46782;BME280;32541;46.298;11.506;2023-02-18T18:30:42;90044.81;;;5.01;72.14
46782;BME280;32541;46.298;11.506;2023-02-18T18:33:17;90034.00;;;4.96;72.58
46782;BME280;32541;46.298;11.506;2023-02-18T18:35:45;90047.91;;;5.05;72.50
46782;BME280;32541;46.298;11.506;2023-02-18T18:38:12;90044.00;;;4.93;72.54
46782;BME280;32541;46.298;11.506;2023-02-18T18:40:38;90039.56;;;4.83;72.87
46782;BME280;32541;46.298;11.506;2023-02-18T18:43:03;90041.41;;;4.88;73.05
46782;BME280;32541;46.298;11.506;2023-02-18T18:45:31;90044.34;;;4.90;73.51
46782;BME280;32541;46.298;11.506;2023-02-18T18:47:59;90046.72;;;4.93;73.02
46782;BME280;32541;46.298;11.506;2023-02-18T18:50:25;90047.53;;;4.81;72.98
46782;BME280;32541;46.298;11.506;2023-02-18T18:52:52;90047.13;;;4.77;73.16
46782;BME280;32541;46.298;11.506;2023-02-18T18:55:30;90045.47;;;4.74;74.35
46782;BME280;32541;46.298;11.506;2023-02-18T18:57:57;90048.97;;;4.82;73.97
46782;BME280;32541;46.298;11.506;2023-02-18T19:02:55;90046.84;;;4.67;73.80
46782;BME280;32541;46.298;11.506;2023-02-18T19:05:27;90043.81;;;4.71;74.36
46782;BME280;32541;46.298;11.506;2023-02-18T19:07:54;90054.22;;;4.59;74.11
46782;BME280;32541;46.298;11.506;2023-02-18T19:10:20;90048.78;;;4.59;74.58
46782;BME280;32541;46.298;11.506;2023-02-18T19:12:47;90048.03;;;4.59;74.11
46782;BME280;32541;46.298;11.506;2023-02-18T19:15:15;90045.50;;;4.61;74.60
46782;BME280;32541;46.298;11.506;2023-02-18T19:17:52;90048.38;;;4.55;74.35
46782;BME280;32541;46.298;11.506;2023-02-18T19:20:23;90047.69;;;4.41;75.17
46782;BME280;32541;46.298;11.506;2023-02-18T19:22:49;90046.75;;;4.39;75.82
46782;BME280;32541;46.298;11.506;2023-02-18T19:25:15;90053.59;;;4.32;75.60
46782;BME280;32541;46.298;11.506;2023-02-18T19:27:43;90042.09;;;4.26;75.53
46782;BME280;32541;46.298;11.506;2023-02-18T19:30:12;90046.06;;;4.25;76.36
46782;BME280;32541;46.298;11.506;2023-02-18T19:32:38;90043.47;;;4.20;77.29
46782;BME280;32541;46.298;11.506;2023-02-18T19:35:04;90052.38;;;4.20;77.13
46782;BME280;32541;46.298;11.506;2023-02-18T19:37:31;90052.69;;;4.17;76.53
46782;BME280;32541;46.298;11.506;2023-02-18T19:39:57;90052.59;;;4.09;76.50
46782;BME280;32541;46.298;11.506;2023-02-18T19:42:22;90049.22;;;4.16;76.16
46782;BME280;32541;46.298;11.506;2023-02-18T19:44:48;90057.59;;;4.18;76.37
46782;BME280;32541;46.298;11.506;2023-02-18T19:47:13;90053.94;;;4.16;76.25
46782;BME280;32541;46.298;11.506;2023-02-18T19:49:38;90066.41;;;4.11;76.68
46782;BME280;32541;46.298;11.506;2023-02-18T19:52:04;90059.28;;;4.08;76.19
46782;BME280;32541;46.298;11.506;2023-02-18T19:54:30;90052.28;;;4.13;77.81
46782;BME280;32541;46.298;11.506;2023-02-18T19:56:57;90063.50;;;4.09;77.61
46782;BME280;32541;46.298;11.506;2023-02-18T19:59:23;90064.31;;;4.17;78.52
46782;BME280;32541;46.298;11.506;2023-02-18T20:01:49;90059.47;;;4.23;77.03
46782;BME280;32541;46.298;11.506;2023-02-18T20:04:14;90057.59;;;4.18;76.51
46782;BME280;32541;46.298;11.506;2023-02-18T20:06:40;90054.72;;;4.03;76.56
46782;BME280;32541;46.298;11.506;2023-02-18T20:09:05;90059.09;;;4.06;76.61
46782;BME280;32541;46.298;11.506;2023-02-18T20:11:31;90054.28;;;3.99;77.03
46782;BME280;32541;46.298;11.506;2023-02-18T20:13:56;90042.28;;;3.95;76.72
46782;BME280;32541;46.298;11.506;2023-02-18T20:16:22;90050.88;;;3.85;77.21
46782;BME280;32541;46.298;11.506;2023-02-18T20:18:47;90045.94;;;3.84;77.99
46782;BME280;32541;46.298;11.506;2023-02-18T20:21:13;90050.38;;;3.74;78.53
46782;BME280;32541;46.298;11.506;2023-02-18T20:23:39;90056.63;;;3.82;77.95
46782;BME280;32541;46.298;11.506;2023-02-18T20:26:08;90048.28;;;3.67;77.71
46782;BME280;32541;46.298;11.506;2023-02-18T20:28:34;90055.88;;;3.68;78.30
46782;BME280;32541;46.298;11.506;2023-02-18T20:31:07;90047.22;;;3.70;78.13
46782;BME280;32541;46.298;11.506;2023-02-18T20:33:34;90047.97;;;3.70;78.42
46782;BME280;32541;46.298;11.506;2023-02-18T20:35:59;90048.06;;;3.65;78.63
46782;BME280;32541;46.298;11.506;2023-02-18T20:38:27;90051.91;;;3.69;78.01
46782;BME280;32541;46.298;11.506;2023-02-18T20:40:52;90050.78;;;3.65;78.40
46782;BME280;32541;46.298;11.506;2023-02-18T20:43:18;90059.56;;;3.58;78.29
46782;BME280;32541;46.298;11.506;2023-02-18T20:45:43;90055.72;;;3.53;79.23
46782;BME280;32541;46.298;11.506;2023-02-18T20:48:09;90062.81;;;3.43;79.14
46782;BME280;32541;46.298;11.506;2023-02-18T20:50:35;90061.22;;;3.48;79.66
46782;BME280;32541;46.298;11.506;2023-02-18T20:53:01;90066.47;;;3.46;79.18
46782;BME280;32541;46.298;11.506;2023-02-18T20:55:27;90063.31;;;3.28;79.51
46782;BME280;32541;46.298;11.506;2023-02-18T20:57:52;90070.09;;;3.22;80.85
46782;BME280;32541;46.298;11.506;2023-02-18T21:00:18;90074.63;;;3.32;80.74
46782;BME280;32541;46.298;11.506;2023-02-18T21:02:44;90072.94;;;3.29;81.24
46782;BME280;32541;46.298;11.506;2023-02-18T21:05:09;90066.16;;;3.23;80.13
46782;BME280;32541;46.298;11.506;2023-02-18T21:07:35;90069.47;;;3.16;80.81
46782;BME280;32541;46.298;11.506;2023-02-18T21:10:00;90059.34;;;3.16;80.93
46782;BME280;32541;46.298;11.506;2023-02-18T21:12:28;90063.13;;;3.26;80.16
46782;BME280;32541;46.298;11.506;2023-02-18T21:14:53;90067.69;;;3.18;80.76
46782;BME280;32541;46.298;11.506;2023-02-18T21:17:19;90067.19;;;3.20;80.27
46782;BME280;32541;46.298;11.506;2023-02-18T21:19:46;90061.97;;;3.22;80.35
46782;BME280;32541;46.298;11.506;2023-02-18T21:22:12;90065.06;;;3.13;80.77
46782;BME280;32541;46.298;11.506;2023-02-18T21:24:38;90068.34;;;3.11;81.22
46782;BME280;32541;46.298;11.506;2023-02-18T21:27:03;90062.25;;;3.18;80.93
46782;BME280;32541;46.298;11.506;2023-02-18T21:29:29;90058.16;;;3.12;81.42
46782;BME280;32541;46.298;11.506;2023-02-18T21:31:55;90064.88;;;3.11;81.22
46782;BME280;32541;46.298;11.506;2023-02-18T21:34:20;90064.44;;;3.07;81.78
46782;BME280;32541;46.298;11.506;2023-02-18T21:36:46;90075.00;;;3.10;81.79
46782;BME280;32541;46.298;11.506;2023-02-18T21:39:13;90060.44;;;2.95;81.55
46782;BME280;32541;46.298;11.506;2023-02-18T21:41:39;90065.16;;;2.94;81.82
46782;BME280;32541;46.298;11.506;2023-02-18T21:44:05;90055.94;;;2.84;81.08
46782;BME280;32541;46.298;11.506;2023-02-18T21:46:32;90059.59;;;2.87;81.66
46782;BME280;32541;46.298;11.506;2023-02-18T21:48:57;90062.13;;;2.85;82.13
46782;BME280;32541;46.298;11.506;2023-02-18T21:51:37;90067.66;;;2.92;81.82
46782;BME280;32541;46.298;11.506;2023-02-18T21:54:31;90056.25;;;2.80;83.03
46782;BME280;32541;46.298;11.506;2023-02-18T21:56:59;90059.31;;;2.90;85.49
46782;BME280;32541;46.298;11.506;2023-02-18T21:59:26;90051.56;;;2.81;82.37
46782;BME280;32541;46.298;11.506;2023-02-18T22:01:52;90054.28;;;2.81;82.56
46782;BME280;32541;46.298;11.506;2023-02-18T22:04:18;90052.88;;;2.74;83.47
46782;BME280;32541;46.298;11.506;2023-02-18T22:06:44;90047.16;;;2.78;83.00
46782;BME280;32541;46.298;11.506;2023-02-18T22:09:12;90063.53;;;2.72;81.99
46782;BME280;32541;46.298;11.506;2023-02-18T22:11:41;90053.38;;;2.60;81.18
46782;BME280;32541;46.298;11.506;2023-02-18T22:14:08;90044.25;;;2.76;81.31
46782;BME280;32541;46.298;11.506;2023-02-18T22:16:34;90063.25;;;2.76;81.24
46782;BME280;32541;46.298;11.506;2023-02-18T22:18:59;90045.75;;;2.58;81.04
46782;BME280;32541;46.298;11.506;2023-02-18T22:21:25;90049.41;;;2.61;80.94
46782;BME280;32541;46.298;11.506;2023-02-18T22:23:50;90054.84;;;2.61;81.70
46782;BME280;32541;46.298;11.506;2023-02-18T22:26:16;90055.25;;;2.65;81.84
46782;BME280;32541;46.298;11.506;2023-02-18T22:28:41;90062.19;;;2.47;81.86
46782;BME280;32541;46.298;11.506;2023-02-18T22:31:10;90053.91;;;2.58;81.50
46782;BME280;32541;46.298;11.506;2023-02-18T22:33:35;90061.72;;;2.62;82.16
46782;BME280;32541;46.298;11.506;2023-02-18T22:36:03;90062.63;;;2.51;81.78
46782;BME280;32541;46.298;11.506;2023-02-18T22:38:32;90064.81;;;2.53;81.90
46782;BME280;32541;46.298;11.506;2023-02-18T22:41:07;90053.81;;;2.64;82.14
46782;BME280;32541;46.298;11.506;2023-02-18T22:43:33;90057.78;;;2.63;82.63
46782;BME280;32541;46.298;11.506;2023-02-18T22:46:10;90049.63;;;2.63;81.58
46782;BME280;32541;46.298;11.506;2023-02-18T22:48:36;90049.28;;;2.53;81.94
46782;BME280;32541;46.298;11.506;2023-02-18T22:51:10;90049.41;;;2.61;82.11
46782;BME280;32541;46.298;11.506;2023-02-18T22:53:37;90036.75;;;2.50;82.89
46782;BME280;32541;46.298;11.506;2023-02-18T22:56:05;90038.50;;;2.48;83.18
46782;BME280;32541;46.298;11.506;2023-02-18T22:58:31;90031.44;;;2.26;82.55
46782;BME280;32541;46.298;11.506;2023-02-18T23:00:56;90033.72;;;2.22;84.12